Overton, Nevada Weather observations

Data are for observation ending at time listed.
 Day   Time    Ave.   Ave.  Ave.  Vector   Max.   Stn.    Total    Solar   Ave.  
  of    of     Air    Rel.  Wind   Wind    Wind   Baro.  Precip.   Rad.    Soil  
Year   Day     Temp.  Hum.  Speed  Dir.    Gust   Pres.                    Temp. 
2026   (PST)    F      %     mph   deg.    mph     mb.     in.     W/m2     F   
------------------------------------------------------------------------------
 247    3:30   77.6    18    1.2   139      2.6   961.7    0.00       0    80.3
 247    3:40   75.7    20    0.9   185      2.9   961.7    0.00       0    79.6
 247    3:50   74.3    21    1.1   139      3.1   961.7    0.00       0    79.1
 247    4:00   73.8    22    0.9   138      2.0   961.6    0.00       0    79.0
 247    4:10   72.2    24    0.0    78      0.7   961.6    0.00       0    77.5
 247    4:20   69.4    29    0.2    84      0.9   961.5    0.00       0    76.8
 247    4:30   67.8    30    0.7   332      1.8   961.5    0.00       0    76.5
 247    4:40   68.6    28    0.3   299      1.1   961.5    0.00       0    76.9
 247    4:50   68.6    27    0.2   356      1.2   961.5    0.00       0    75.7
 247    5:00   66.5    32    1.2   351      2.0   961.6    0.00       0    75.4
 247    5:10   66.1    31    0.5   326      1.8   961.6    0.00       2    75.4
 247    5:20   65.6    30    0.4   299      1.5   961.7    0.00       5    74.8
 247    5:30   65.2    30    1.8   299      3.7   961.9    0.00      11    74.7
 247    5:40   66.0    28    1.8   302      3.8   962.0    0.00      46    74.9
 247    5:50   66.0    30    2.2   314      3.1   962.2    0.00      78    77.5
 247    6:00   66.4    29    1.3   321      2.8   962.5    0.00     107    79.6
 247    6:10   68.8    27    0.7   309      2.2   962.7    0.00     138    81.8
 247    6:20   71.2    24    0.5   338      2.0   963.0    0.00     170    84.4
 247    6:30   74.0    22    0.1   355      1.1   963.2    0.00     204    86.4
 247    6:40   75.4    21    0.2   351      1.2   963.5    0.00     238    88.2
 247    6:50   77.0    21    0.5     0      1.4   963.7    0.00     273    89.8
 247    7:00   77.6    22    0.9   332      1.8   964.0    0.00     307    91.3
 247    7:10   78.8    20    1.1   344      2.6   964.2    0.00     342    93.0
 247    7:20   80.7    21    1.8   356      3.4   964.4    0.00     376    94.0
 247    7:30   81.3    21    2.3   342      3.3   964.6    0.00     411    95.0
 247    7:40   82.3    22    3.3   350      5.2   964.8    0.00     447    95.7
 247    7:50   84.5    19    2.7    19      4.1   965.0    0.00     480    98.2
 247    8:00   85.3    15    4.4    73      7.1   965.1    0.00     512    99.4
 247    8:10   85.7    14    3.6    65      5.9   965.3    0.00     542    100.6
 247    8:20   86.8    14    2.7    61      4.4   965.4    0.00     573    101.9
 247    8:30   88.6    13    1.3    46      2.7   965.6    0.00     601    103.4
 247    8:40   90.5    12    1.2    90      3.1   965.7    0.00     629    105.4
 247    8:50   90.4    12    3.5   153     11.0   965.8    0.00     656    105.9
 247    9:00   90.6    12    8.0   166     17.0   965.9    0.00     683    106.4
 247    9:10   91.1    12    5.9   146     14.1   966.0    0.00     709    107.0
 247    9:20   91.6    12    3.9   149      9.9   966.1    0.00     730    108.3
 247    9:30   92.7    12    5.5   157     14.1   966.1    0.00     752    109.9
 247    9:40   93.6    13    7.2   153     15.3   966.1    0.00     771    110.0
 247    9:50   93.9    13    7.9   155     15.6   966.1    0.00     787    110.4
 247   10:00   93.1    14   12.7   174     21.7   966.1    0.00     803    110.2
 247   10:10   93.7    14   11.2   174     21.9   966.1    0.00     819    110.2
 247   10:20   93.8    14   13.2   177     22.1   966.0    0.00     834    109.8
 247   10:30   94.5    13   11.1   186     18.3   965.9    0.00     849    109.8
 247   10:40   94.4    13   13.5   181     23.4   965.8    0.00     862    109.8
 247   10:50   94.6    13   10.7   156     21.4   965.7    0.00     874    109.2
 247   11:00   94.9    13   11.7   164     22.8   965.6    0.00     882    109.6
 247   11:10   95.4    14   12.5   170     22.0   965.3    0.00     883    110.1
 247   11:20   95.8    15    9.9   154     21.5   965.2    0.00     878    110.0
 247   11:30   95.7    18   11.1   164     22.1   965.2    0.00     878    110.2
 247   11:40   96.4    17    8.9   154     16.8   965.0    0.00     876    110.0
 247   11:50   96.5    16   11.6   168     24.7   965.0    0.00     881    110.7
 247   12:00   96.8    12   13.0   172     21.7   964.9    0.00     887    110.8
 247   12:10   96.7    12   14.2   186     26.5   964.8    0.00     885    110.8
 247   12:20   97.3    11   11.9   174     21.0   964.6    0.00     875    110.7
 247   12:30   97.2    12   11.5   172     19.6   964.6    0.00     863    109.9
 247   12:40   97.2    13   11.8   178     19.9   964.5    0.00     847    109.0
 247   12:50   97.3    11   11.9   160     21.6   964.4    0.00     838    107.2
 247   13:00   97.3    11   12.1   161     26.5   964.4    0.00     825    106.5
 247   13:10   97.8    11   11.7   161     22.2   964.3    0.00     811    106.6
 247   13:20   98.0    11   13.1   177     24.3   964.2    0.00     795    106.8
 247   13:30   98.0    10   11.6   163     21.5   964.2    0.00     776    106.6
 247   13:40   98.6    10    7.6   165     15.2   964.1    0.00     757    106.8
 247   13:50   98.8    10   11.1   161     24.0   964.1    0.00     736    106.8
 247   14:00   98.8    10    9.9   169     18.1   964.1    0.00     715    106.7
 247   14:10   99.0     9   10.6   168     22.9   964.1    0.00     690    106.3
 247   14:20   98.6     9   11.2   155     22.0   964.0    0.00     668    105.9
 247   14:30   99.1     9   10.1   166     20.7   964.0    0.00     644    105.8
 247   14:40   98.9    10   10.3   162     17.5   964.0    0.00     615    105.5
 247   14:50   98.9    10   10.0   154     19.9   963.8    0.00     585    105.0
 247   15:00   98.6    10   11.3   170     23.0   963.7    0.00     551    105.0
 247   15:10   98.4    10   12.1   171     24.7   963.7    0.00     518    104.6
 247   15:20   98.7    10    9.4   165     17.0   963.6    0.00     492    104.3
 247   15:30   98.6    11    9.2   169     17.8   963.6    0.00     451    104.0
 247   15:40   98.8    10    9.4   162     19.5   963.5    0.00     427    103.7
 247   15:50   99.3    10    7.6   155     15.1   963.5    0.00     385    103.2
 247   16:00   98.6    10   12.2   167     23.4   963.4    0.00     136    103.0
 247   16:10   98.7    10    9.8   162     22.4   963.5    0.00     117    102.5
 247   16:20   98.3    10    9.0   159     19.0   963.4    0.00     294    102.2
 247   16:30   98.1     9   10.0   160     21.3   963.3    0.00     263    101.7
 247   16:40   98.0     9    9.6   157     18.8   963.3    0.00     230    101.3
 247   16:50   97.7     9   10.1   156     19.1   963.2    0.00     199    100.8
 247   17:00   97.5     8   10.2   159     22.2   963.1    0.00     168    100.4
 247   17:10   97.2     8   10.9   161     18.8   963.1    0.00     104    100.0
 247   17:20   96.9     8   10.5   162     19.4   963.1    0.00      96    99.4
 247   17:30   96.6     8    9.4   165     17.9   963.1    0.00      82    98.8
 247   17:40   96.2     8    9.8   162     21.1   962.9    0.00      48    98.2
 247   17:50   95.9     8    9.4   162     18.2   962.8    0.00      13    97.7
 247   18:00   95.4     8    7.9   161     16.3   962.7    0.00       8    97.1
 247   18:10   95.0     8    6.6   159     13.2   962.7    0.00       4    96.6
 247   18:20   94.6     8    6.3   157     14.5   962.6    0.00       1    96.1
 247   18:30   94.3     8    7.4   159     15.5   962.4    0.00       0    95.6
 247   18:40   94.1     8    6.9   161     13.2   962.3    0.00       0    95.2
 247   18:50   93.7     9    5.5   158     11.4   962.4    0.00       0    94.8
 247   19:00   93.3     9    5.7   160      9.6   962.4    0.00       0    94.4
 247   19:10   93.3     9    6.6   159     12.1   962.5    0.00       0    94.2
 247   19:20   93.0     9    6.2   160     11.2   962.7    0.00       0    93.8
 247   19:30   92.8     9    6.9   162     12.6   962.8    0.00       0    93.6
 247   19:40   92.7     9    6.5   167     11.1   962.8    0.00       0    93.3
 247   19:50   92.6    10    7.5   168     12.6   962.9    0.00       0    93.2
 247   20:00   92.6    10    7.5   168     14.3   962.9    0.00       0    92.9
 247   20:10   92.4     9    6.5   164     11.8   963.0    0.00       0    92.6
 247   20:20   92.6     9    7.2   168     15.1   963.1    0.00       0    92.5
 247   20:30   92.5     9    5.9   165     11.0   963.2    0.00       0    92.2
 247   20:40   91.9     9    4.8   159     11.0   963.3    0.00       0    91.8
 247   20:50   91.7     8    5.1   158     10.5   963.3    0.00       0    91.5
 247   21:00   91.3     8    4.2   156      9.4   963.3    0.00       0    91.2
 247   21:10   90.3     9    5.5   166     11.5   963.3    0.00       0    90.8
 247   21:20   90.2     9    6.1   172     11.7   963.3    0.00       0    90.6
 247   21:30   90.8     8    6.5   166     11.9   963.3    0.00       0    90.6
 247   21:40   90.5     8    6.0   167     11.5   963.3    0.00       0    90.3
 247   21:50   90.6     8    6.6   172     15.1   963.3    0.00       0    90.2
 247   22:00   90.4     8    5.7   170     10.7   963.3    0.00       0    89.9
 247   22:10   89.9     8    4.5   171      8.6   963.3    0.00       0    89.5
 247   22:20   89.7     8    5.0   169      9.2   963.4    0.00       0    89.4
 247   22:30   89.2     8    3.0   164      8.4   963.5    0.00       0    88.9
 247   22:40   83.9    11    2.9    50      5.0   963.6    0.00       0    87.1
 247   22:50   81.9    11    3.9    62      6.7   963.5    0.00       0    86.7
 247   23:00   81.1    11    5.5    71      7.2   963.5    0.00       0    86.1
 247   23:10   79.8    12    3.4    78      5.8   963.4    0.00       0    85.5
 247   23:20   79.0    13    1.3    67      2.8   963.4    0.00       0    84.8
 247   23:30   77.3    15    0.9     3      4.7   963.4    0.00       0    83.9
 247   23:40   75.7    18    1.2    10      4.5   963.4    0.00       0    82.9
 247   23:50   74.4    18    1.3   356      2.6   963.4    0.00       0    82.6
 248    0:00   80.0    12    4.2   179      9.2   963.4    0.00       0    84.1
 248    0:10   87.2     9    6.4   188     11.2   963.5    0.00       0    85.5
 248    0:20   87.5     9    5.7   188      9.7   963.8    0.00       0    85.6
 248    0:30   87.2     9    5.6   185     10.4   964.0    0.00       0    85.6
 248    0:40   86.9    10    5.1   185     10.4   964.1    0.00       0    85.5
 248    0:50   86.5    10    4.8   181      7.7   964.2    0.00       0    85.4
 248    1:00   86.5    10    5.8   179     11.4   964.3    0.00       0    85.6
 248    1:10   87.0    10    6.2   179     11.2   964.3    0.00       0    85.7
 248    1:20   86.6    10    5.4   180      9.9   964.3    0.00       0    85.5
 248    1:30   85.8    10    3.9   180      7.2   964.4    0.00       0    85.2
 248    1:40   84.3    11    2.4   197      5.2   964.4    0.00       0    84.4
 248    1:50   78.4    14    2.7   342      4.1   964.4    0.00       0    82.8
 248    2:00   76.2    15    3.2   332      5.2   964.4    0.00       0    82.0
 248    2:10   73.3    18    2.5   326      3.3   964.2    0.00       0    80.8
 248    2:20   71.4    20    2.6   325      3.2   964.0    0.00       0    80.1
 248    2:30   70.0    21    1.8   336      3.1   963.9    0.00       0    79.3
 248    2:40   69.8    21    2.0   327      3.9   963.9    0.00       0    79.2
 248    2:50   69.7    21    2.0   330      3.2   963.8    0.00       0    78.8
 248    3:00   69.0    21    1.9   322      3.7   963.7    0.00       0    78.4
 248    3:10   70.4    20    1.1   242      2.2   963.7    0.00       0    79.2
 248    3:20   70.2    20    1.4   282      2.7   963.6    0.00       0    77.8

Return to Overton, Nevada graphs page.


Western Regional Climate Center,wrcc@dri.edu